sensor_id;sensor_type;location;lat;lon;timestamp;P1;durP1;ratioP1;P2;durP2;ratioP2
68744;SDS011;66104;45.456;11.064;2023-04-03T00:00:36;2.10;;;1.30;;
68744;SDS011;66104;45.456;11.064;2023-04-03T00:03:12;2.00;;;1.20;;
68744;SDS011;66104;45.456;11.064;2023-04-03T00:05:49;2.40;;;1.30;;
68744;SDS011;66104;45.456;11.064;2023-04-03T00:08:27;3.30;;;2.20;;
68744;SDS011;66104;45.456;11.064;2023-04-03T00:11:04;2.30;;;1.50;;
68744;SDS011;66104;45.456;11.064;2023-04-03T00:13:41;2.90;;;1.30;;
68744;SDS011;66104;45.456;11.064;2023-04-03T00:16:17;1.80;;;1.30;;
68744;SDS011;66104;45.456;11.064;2023-04-03T00:18:53;2.10;;;1.20;;
68744;SDS011;66104;45.456;11.064;2023-04-03T00:21:29;1.60;;;1.10;;
68744;SDS011;66104;45.456;11.064;2023-04-03T00:24:07;1.90;;;1.30;;
68744;SDS011;66104;45.456;11.064;2023-04-03T00:26:44;2.00;;;1.20;;
68744;SDS011;66104;45.456;11.064;2023-04-03T00:29:20;1.50;;;1.10;;
68744;SDS011;66104;45.456;11.064;2023-04-03T00:31:57;1.80;;;1.20;;
68744;SDS011;66104;45.456;11.064;2023-04-03T00:34:34;5.70;;;1.40;;
68744;SDS011;66104;45.456;11.064;2023-04-03T00:37:10;1.60;;;1.10;;
68744;SDS011;66104;45.456;11.064;2023-04-03T00:39:46;2.10;;;1.50;;
68744;SDS011;66104;45.456;11.064;2023-04-03T00:42:23;1.90;;;1.10;;
68744;SDS011;66104;45.456;11.064;2023-04-03T00:45:31;1.50;;;1.00;;
68744;SDS011;66104;45.456;11.064;2023-04-03T00:48:11;1.90;;;1.20;;
68744;SDS011;66104;45.456;11.064;2023-04-03T00:50:50;2.10;;;1.30;;
68744;SDS011;66104;45.456;11.064;2023-04-03T00:53:29;1.70;;;1.20;;
68744;SDS011;66104;45.456;11.064;2023-04-03T00:56:12;1.80;;;1.20;;
68744;SDS011;66104;45.456;11.064;2023-04-03T00:58:53;1.60;;;1.20;;
68744;SDS011;66104;45.456;11.064;2023-04-03T01:01:32;2.30;;;1.20;;
68744;SDS011;66104;45.456;11.064;2023-04-03T01:04:28;3.00;;;1.30;;
68744;SDS011;66104;45.456;11.064;2023-04-03T01:07:08;2.10;;;1.30;;
68744;SDS011;66104;45.456;11.064;2023-04-03T01:09:49;2.60;;;1.00;;
68744;SDS011;66104;45.456;11.064;2023-04-03T01:12:32;1.70;;;1.10;;
68744;SDS011;66104;45.456;11.064;2023-04-03T01:15:12;2.10;;;1.30;;
68744;SDS011;66104;45.456;11.064;2023-04-03T01:17:52;2.10;;;1.20;;
68744;SDS011;66104;45.456;11.064;2023-04-03T01:24:07;3.70;;;1.30;;
68744;SDS011;66104;45.456;11.064;2023-04-03T01:26:50;1.50;;;1.20;;
68744;SDS011;66104;45.456;11.064;2023-04-03T01:29:28;1.70;;;1.10;;
68744;SDS011;66104;45.456;11.064;2023-04-03T01:32:04;2.60;;;1.60;;
68744;SDS011;66104;45.456;11.064;2023-04-03T01:34:40;2.10;;;1.40;;
68744;SDS011;66104;45.456;11.064;2023-04-03T01:37:16;2.00;;;1.20;;
68744;SDS011;66104;45.456;11.064;2023-04-03T01:39:53;2.30;;;1.20;;
68744;SDS011;66104;45.456;11.064;2023-04-03T01:42:29;2.50;;;1.20;;
68744;SDS011;66104;45.456;11.064;2023-04-03T01:45:09;1.80;;;1.30;;
68744;SDS011;66104;45.456;11.064;2023-04-03T01:47:46;3.60;;;1.10;;
68744;SDS011;66104;45.456;11.064;2023-04-03T01:50:23;1.50;;;1.10;;
68744;SDS011;66104;45.456;11.064;2023-04-03T01:52:59;1.50;;;1.20;;
68744;SDS011;66104;45.456;11.064;2023-04-03T01:55:35;2.20;;;1.10;;
68744;SDS011;66104;45.456;11.064;2023-04-03T01:58:12;1.50;;;1.20;;
68744;SDS011;66104;45.456;11.064;2023-04-03T02:00:50;2.00;;;1.30;;
68744;SDS011;66104;45.456;11.064;2023-04-03T02:03:27;1.70;;;1.20;;
68744;SDS011;66104;45.456;11.064;2023-04-03T02:06:04;1.90;;;1.10;;
68744;SDS011;66104;45.456;11.064;2023-04-03T02:08:42;2.60;;;1.10;;
68744;SDS011;66104;45.456;11.064;2023-04-03T02:11:19;2.00;;;1.30;;
68744;SDS011;66104;45.456;11.064;2023-04-03T02:13:56;2.00;;;1.30;;
68744;SDS011;66104;45.456;11.064;2023-04-03T02:16:33;2.40;;;1.30;;
68744;SDS011;66104;45.456;11.064;2023-04-03T02:19:10;1.70;;;1.20;;
68744;SDS011;66104;45.456;11.064;2023-04-03T02:21:46;2.20;;;1.40;;
68744;SDS011;66104;45.456;11.064;2023-04-03T02:24:23;1.70;;;1.30;;
68744;SDS011;66104;45.456;11.064;2023-04-03T02:27:02;2.20;;;1.30;;
68744;SDS011;66104;45.456;11.064;2023-04-03T02:29:38;1.70;;;1.20;;
68744;SDS011;66104;45.456;11.064;2023-04-03T02:32:15;1.80;;;1.20;;
68744;SDS011;66104;45.456;11.064;2023-04-03T02:34:51;1.70;;;1.20;;
68744;SDS011;66104;45.456;11.064;2023-04-03T02:37:27;1.70;;;1.40;;
68744;SDS011;66104;45.456;11.064;2023-04-03T02:40:06;1.80;;;1.20;;
68744;SDS011;66104;45.456;11.064;2023-04-03T02:42:44;2.10;;;1.30;;
68744;SDS011;66104;45.456;11.064;2023-04-03T02:45:21;2.40;;;1.40;;
68744;SDS011;66104;45.456;11.064;2023-04-03T02:47:57;3.50;;;1.60;;
68744;SDS011;66104;45.456;11.064;2023-04-03T02:50:34;2.20;;;1.60;;
68744;SDS011;66104;45.456;11.064;2023-04-03T02:53:10;2.90;;;1.70;;
68744;SDS011;66104;45.456;11.064;2023-04-03T02:55:48;1.80;;;1.30;;
68744;SDS011;66104;45.456;11.064;2023-04-03T02:58:25;3.20;;;1.40;;
68744;SDS011;66104;45.456;11.064;2023-04-03T03:01:02;1.80;;;1.40;;
68744;SDS011;66104;45.456;11.064;2023-04-03T03:03:37;2.50;;;1.50;;
68744;SDS011;66104;45.456;11.064;2023-04-03T03:06:16;2.90;;;1.60;;
68744;SDS011;66104;45.456;11.064;2023-04-03T03:08:53;2.10;;;1.50;;
68744;SDS011;66104;45.456;11.064;2023-04-03T03:11:29;2.40;;;1.30;;
68744;SDS011;66104;45.456;11.064;2023-04-03T03:14:06;2.30;;;1.50;;
68744;SDS011;66104;45.456;11.064;2023-04-03T03:16:42;2.30;;;1.50;;
68744;SDS011;66104;45.456;11.064;2023-04-03T03:19:19;2.20;;;1.60;;
68744;SDS011;66104;45.456;11.064;2023-04-03T03:21:55;3.80;;;1.60;;
68744;SDS011;66104;45.456;11.064;2023-04-03T03:24:32;2.80;;;1.70;;
68744;SDS011;66104;45.456;11.064;2023-04-03T03:27:09;2.40;;;1.60;;
68744;SDS011;66104;45.456;11.064;2023-04-03T03:29:45;3.10;;;1.70;;
68744;SDS011;66104;45.456;11.064;2023-04-03T03:32:21;3.20;;;1.70;;
68744;SDS011;66104;45.456;11.064;2023-04-03T03:34:58;2.90;;;1.70;;
68744;SDS011;66104;45.456;11.064;2023-04-03T03:37:35;3.60;;;1.70;;
68744;SDS011;66104;45.456;11.064;2023-04-03T03:40:16;2.20;;;1.60;;
68744;SDS011;66104;45.456;11.064;2023-04-03T03:42:52;3.20;;;1.90;;
68744;SDS011;66104;45.456;11.064;2023-04-03T03:45:28;3.00;;;1.80;;
68744;SDS011;66104;45.456;11.064;2023-04-03T03:48:06;2.30;;;1.60;;
68744;SDS011;66104;45.456;11.064;2023-04-03T03:50:42;2.10;;;1.70;;
68744;SDS011;66104;45.456;11.064;2023-04-03T03:53:19;2.10;;;1.60;;
68744;SDS011;66104;45.456;11.064;2023-04-03T03:55:59;2.90;;;1.80;;
68744;SDS011;66104;45.456;11.064;2023-04-03T03:58:37;2.60;;;1.80;;
68744;SDS011;66104;45.456;11.064;2023-04-03T04:01:13;3.10;;;1.90;;
68744;SDS011;66104;45.456;11.064;2023-04-03T04:03:51;2.10;;;1.60;;
68744;SDS011;66104;45.456;11.064;2023-04-03T04:06:30;2.40;;;1.70;;
68744;SDS011;66104;45.456;11.064;2023-04-03T04:09:08;3.10;;;1.60;;
68744;SDS011;66104;45.456;11.064;2023-04-03T04:11:44;2.00;;;1.40;;
68744;SDS011;66104;45.456;11.064;2023-04-03T04:14:22;3.10;;;1.60;;
68744;SDS011;66104;45.456;11.064;2023-04-03T04:16:58;3.00;;;1.60;;
68744;SDS011;66104;45.456;11.064;2023-04-03T04:19:35;2.30;;;1.50;;
68744;SDS011;66104;45.456;11.064;2023-04-03T04:22:11;2.20;;;1.40;;
68744;SDS011;66104;45.456;11.064;2023-04-03T04:24:47;4.00;;;1.70;;
68744;SDS011;66104;45.456;11.064;2023-04-03T04:27:24;1.80;;;1.30;;
68744;SDS011;66104;45.456;11.064;2023-04-03T04:30:00;2.00;;;1.20;;
68744;SDS011;66104;45.456;11.064;2023-04-03T04:32:38;2.60;;;1.50;;
68744;SDS011;66104;45.456;11.064;2023-04-03T04:35:14;2.80;;;1.50;;
68744;SDS011;66104;45.456;11.064;2023-04-03T04:37:51;2.50;;;1.30;;
68744;SDS011;66104;45.456;11.064;2023-04-03T04:40:28;2.30;;;1.20;;
68744;SDS011;66104;45.456;11.064;2023-04-03T04:43:04;2.20;;;1.60;;
68744;SDS011;66104;45.456;11.064;2023-04-03T04:45:41;2.20;;;1.20;;
68744;SDS011;66104;45.456;11.064;2023-04-03T04:48:17;2.20;;;1.40;;
68744;SDS011;66104;45.456;11.064;2023-04-03T04:50:54;2.00;;;1.50;;
68744;SDS011;66104;45.456;11.064;2023-04-03T04:53:30;2.40;;;1.40;;
68744;SDS011;66104;45.456;11.064;2023-04-03T04:56:09;2.00;;;1.40;;
68744;SDS011;66104;45.456;11.064;2023-04-03T04:58:46;2.10;;;1.30;;
68744;SDS011;66104;45.456;11.064;2023-04-03T05:01:23;2.30;;;1.40;;
68744;SDS011;66104;45.456;11.064;2023-04-03T05:04:12;2.30;;;1.50;;
68744;SDS011;66104;45.456;11.064;2023-04-03T05:06:50;2.20;;;1.40;;
68744;SDS011;66104;45.456;11.064;2023-04-03T05:09:30;2.00;;;1.40;;
68744;SDS011;66104;45.456;11.064;2023-04-03T05:12:07;2.10;;;1.30;;
68744;SDS011;66104;45.456;11.064;2023-04-03T05:14:49;3.90;;;1.60;;
68744;SDS011;66104;45.456;11.064;2023-04-03T05:17:25;1.80;;;1.40;;
68744;SDS011;66104;45.456;11.064;2023-04-03T05:20:01;2.00;;;1.40;;
68744;SDS011;66104;45.456;11.064;2023-04-03T05:22:40;2.00;;;1.40;;
68744;SDS011;66104;45.456;11.064;2023-04-03T05:25:17;4.80;;;1.60;;
68744;SDS011;66104;45.456;11.064;2023-04-03T05:27:57;2.40;;;1.40;;
68744;SDS011;66104;45.456;11.064;2023-04-03T05:30:33;2.40;;;1.50;;
68744;SDS011;66104;45.456;11.064;2023-04-03T05:33:11;2.40;;;1.50;;
68744;SDS011;66104;45.456;11.064;2023-04-03T05:35:51;2.10;;;1.30;;
68744;SDS011;66104;45.456;11.064;2023-04-03T05:38:32;2.90;;;1.50;;
68744;SDS011;66104;45.456;11.064;2023-04-03T05:41:08;2.40;;;1.40;;
68744;SDS011;66104;45.456;11.064;2023-04-03T05:43:47;3.90;;;1.40;;
68744;SDS011;66104;45.456;11.064;2023-04-03T05:46:23;3.60;;;1.50;;
68744;SDS011;66104;45.456;11.064;2023-04-03T05:49:01;2.90;;;1.60;;
68744;SDS011;66104;45.456;11.064;2023-04-03T05:51:39;2.20;;;1.50;;
68744;SDS011;66104;45.456;11.064;2023-04-03T05:54:25;2.30;;;1.50;;
68744;SDS011;66104;45.456;11.064;2023-04-03T05:57:11;3.20;;;1.50;;
68744;SDS011;66104;45.456;11.064;2023-04-03T05:59:47;2.20;;;1.30;;
68744;SDS011;66104;45.456;11.064;2023-04-03T06:02:24;5.60;;;2.30;;
68744;SDS011;66104;45.456;11.064;2023-04-03T06:05:01;3.50;;;1.50;;
68744;SDS011;66104;45.456;11.064;2023-04-03T06:07:39;4.80;;;1.70;;
68744;SDS011;66104;45.456;11.064;2023-04-03T06:10:15;2.70;;;1.40;;
68744;SDS011;66104;45.456;11.064;2023-04-03T06:12:52;3.70;;;1.80;;
68744;SDS011;66104;45.456;11.064;2023-04-03T06:15:29;2.80;;;1.60;;
68744;SDS011;66104;45.456;11.064;2023-04-03T06:18:06;2.40;;;1.40;;
68744;SDS011;66104;45.456;11.064;2023-04-03T06:20:42;3.70;;;1.50;;
68744;SDS011;66104;45.456;11.064;2023-04-03T06:23:19;3.70;;;1.40;;
68744;SDS011;66104;45.456;11.064;2023-04-03T06:25:55;3.00;;;1.60;;
68744;SDS011;66104;45.456;11.064;2023-04-03T06:28:32;3.50;;;2.00;;
68744;SDS011;66104;45.456;11.064;2023-04-03T06:31:08;3.50;;;1.80;;
68744;SDS011;66104;45.456;11.064;2023-04-03T06:33:45;3.50;;;1.90;;
68744;SDS011;66104;45.456;11.064;2023-04-03T06:36:22;3.30;;;1.80;;
68744;SDS011;66104;45.456;11.064;2023-04-03T06:38:58;3.00;;;1.80;;
68744;SDS011;66104;45.456;11.064;2023-04-03T06:41:35;3.70;;;1.50;;
68744;SDS011;66104;45.456;11.064;2023-04-03T06:44:11;4.30;;;1.60;;
68744;SDS011;66104;45.456;11.064;2023-04-03T06:46:49;4.00;;;2.00;;
68744;SDS011;66104;45.456;11.064;2023-04-03T06:49:25;4.10;;;1.90;;
68744;SDS011;66104;45.456;11.064;2023-04-03T06:52:02;4.50;;;1.80;;
68744;SDS011;66104;45.456;11.064;2023-04-03T06:54:40;4.00;;;1.70;;
68744;SDS011;66104;45.456;11.064;2023-04-03T06:57:16;4.80;;;1.90;;
68744;SDS011;66104;45.456;11.064;2023-04-03T06:59:53;3.80;;;1.70;;
68744;SDS011;66104;45.456;11.064;2023-04-03T07:02:29;8.30;;;1.80;;
68744;SDS011;66104;45.456;11.064;2023-04-03T07:05:08;3.60;;;1.80;;
68744;SDS011;66104;45.456;11.064;2023-04-03T07:07:46;4.60;;;2.10;;
68744;SDS011;66104;45.456;11.064;2023-04-03T07:10:23;7.20;;;2.30;;
68744;SDS011;66104;45.456;11.064;2023-04-03T07:13:00;5.50;;;2.70;;
68744;SDS011;66104;45.456;11.064;2023-04-03T07:15:36;6.20;;;2.80;;
68744;SDS011;66104;45.456;11.064;2023-04-03T07:18:13;4.10;;;2.20;;
68744;SDS011;66104;45.456;11.064;2023-04-03T07:20:51;6.70;;;2.60;;
68744;SDS011;66104;45.456;11.064;2023-04-03T07:23:29;3.50;;;2.10;;
68744;SDS011;66104;45.456;11.064;2023-04-03T07:26:06;5.90;;;3.20;;
68744;SDS011;66104;45.456;11.064;2023-04-03T07:28:43;5.40;;;2.50;;
68744;SDS011;66104;45.456;11.064;2023-04-03T07:31:19;4.50;;;2.50;;
68744;SDS011;66104;45.456;11.064;2023-04-03T07:33:56;7.70;;;2.50;;
68744;SDS011;66104;45.456;11.064;2023-04-03T07:36:32;5.40;;;2.50;;
68744;SDS011;66104;45.456;11.064;2023-04-03T07:39:08;5.50;;;2.40;;
68744;SDS011;66104;45.456;11.064;2023-04-03T07:41:44;4.50;;;2.60;;
68744;SDS011;66104;45.456;11.064;2023-04-03T07:44:21;6.70;;;2.20;;
68744;SDS011;66104;45.456;11.064;2023-04-03T07:46:58;5.10;;;2.30;;
68744;SDS011;66104;45.456;11.064;2023-04-03T07:49:35;5.80;;;2.20;;
68744;SDS011;66104;45.456;11.064;2023-04-03T07:52:11;9.20;;;2.80;;
68744;SDS011;66104;45.456;11.064;2023-04-03T07:54:47;4.70;;;2.40;;
68744;SDS011;66104;45.456;11.064;2023-04-03T07:57:24;5.70;;;2.60;;
68744;SDS011;66104;45.456;11.064;2023-04-03T08:00:01;5.70;;;2.90;;
68744;SDS011;66104;45.456;11.064;2023-04-03T08:02:42;6.90;;;2.80;;
68744;SDS011;66104;45.456;11.064;2023-04-03T08:05:21;7.90;;;3.20;;
68744;SDS011;66104;45.456;11.064;2023-04-03T08:07:58;6.80;;;2.70;;
68744;SDS011;66104;45.456;11.064;2023-04-03T08:10:35;4.90;;;3.20;;
68744;SDS011;66104;45.456;11.064;2023-04-03T08:13:12;6.70;;;2.60;;
68744;SDS011;66104;45.456;11.064;2023-04-03T08:15:48;5.40;;;2.90;;
68744;SDS011;66104;45.456;11.064;2023-04-03T08:18:25;5.40;;;2.50;;
68744;SDS011;66104;45.456;11.064;2023-04-03T08:21:02;6.70;;;2.30;;
68744;SDS011;66104;45.456;11.064;2023-04-03T08:23:43;4.80;;;2.00;;
68744;SDS011;66104;45.456;11.064;2023-04-03T08:26:23;5.50;;;2.10;;
68744;SDS011;66104;45.456;11.064;2023-04-03T08:28:59;5.10;;;2.10;;
68744;SDS011;66104;45.456;11.064;2023-04-03T08:31:36;5.30;;;2.30;;
68744;SDS011;66104;45.456;11.064;2023-04-03T08:34:12;5.60;;;2.20;;
68744;SDS011;66104;45.456;11.064;2023-04-03T08:36:49;7.10;;;2.40;;
68744;SDS011;66104;45.456;11.064;2023-04-03T08:39:26;7.20;;;2.50;;
68744;SDS011;66104;45.456;11.064;2023-04-03T08:42:07;3.80;;;2.50;;
68744;SDS011;66104;45.456;11.064;2023-04-03T08:44:57;5.60;;;2.80;;
68744;SDS011;66104;45.456;11.064;2023-04-03T08:47:46;7.40;;;2.60;;
68744;SDS011;66104;45.456;11.064;2023-04-03T08:50:28;7.30;;;2.70;;
68744;SDS011;66104;45.456;11.064;2023-04-03T08:53:08;4.30;;;1.90;;
68744;SDS011;66104;45.456;11.064;2023-04-03T08:55:48;6.70;;;2.20;;
68744;SDS011;66104;45.456;11.064;2023-04-03T08:58:26;8.10;;;2.70;;
68744;SDS011;66104;45.456;11.064;2023-04-03T09:01:06;5.20;;;2.30;;
68744;SDS011;66104;45.456;11.064;2023-04-03T09:03:48;6.40;;;2.30;;
68744;SDS011;66104;45.456;11.064;2023-04-03T09:06:27;6.80;;;2.00;;
68744;SDS011;66104;45.456;11.064;2023-04-03T09:09:15;5.80;;;2.20;;
68744;SDS011;66104;45.456;11.064;2023-04-03T09:12:06;6.00;;;2.00;;
68744;SDS011;66104;45.456;11.064;2023-04-03T09:14:59;4.00;;;2.20;;
68744;SDS011;66104;45.456;11.064;2023-04-03T09:17:56;5.90;;;2.30;;
68744;SDS011;66104;45.456;11.064;2023-04-03T09:20:45;7.90;;;2.20;;
68744;SDS011;66104;45.456;11.064;2023-04-03T09:23:31;5.50;;;2.70;;
68744;SDS011;66104;45.456;11.064;2023-04-03T09:26:17;8.40;;;2.60;;
68744;SDS011;66104;45.456;11.064;2023-04-03T09:29:02;6.60;;;2.70;;
68744;SDS011;66104;45.456;11.064;2023-04-03T09:31:44;6.00;;;2.20;;
68744;SDS011;66104;45.456;11.064;2023-04-03T09:34:25;5.40;;;2.00;;
68744;SDS011;66104;45.456;11.064;2023-04-03T09:37:04;5.80;;;2.30;;
68744;SDS011;66104;45.456;11.064;2023-04-03T09:39:53;6.00;;;2.60;;
68744;SDS011;66104;45.456;11.064;2023-04-03T09:42:31;7.00;;;2.60;;
68744;SDS011;66104;45.456;11.064;2023-04-03T09:45:27;5.20;;;2.40;;
68744;SDS011;66104;45.456;11.064;2023-04-03T09:48:15;8.50;;;3.00;;
68744;SDS011;66104;45.456;11.064;2023-04-03T09:51:01;11.50;;;2.40;;
68744;SDS011;66104;45.456;11.064;2023-04-03T09:53:38;5.40;;;2.40;;
68744;SDS011;66104;45.456;11.064;2023-04-03T09:56:25;7.80;;;2.30;;
68744;SDS011;66104;45.456;11.064;2023-04-03T09:59:14;7.20;;;2.30;;
68744;SDS011;66104;45.456;11.064;2023-04-03T10:02:02;7.90;;;2.20;;
68744;SDS011;66104;45.456;11.064;2023-04-03T10:04:55;6.90;;;2.00;;
68744;SDS011;66104;45.456;11.064;2023-04-03T10:07:40;6.20;;;2.10;;
68744;SDS011;66104;45.456;11.064;2023-04-03T10:10:31;7.30;;;2.10;;
68744;SDS011;66104;45.456;11.064;2023-04-03T10:13:12;6.90;;;2.20;;
68744;SDS011;66104;45.456;11.064;2023-04-03T10:15:56;6.80;;;2.40;;
68744;SDS011;66104;45.456;11.064;2023-04-03T10:18:43;4.80;;;2.30;;
68744;SDS011;66104;45.456;11.064;2023-04-03T10:21:33;8.00;;;2.50;;
68744;SDS011;66104;45.456;11.064;2023-04-03T10:24:17;6.40;;;2.20;;
68744;SDS011;66104;45.456;11.064;2023-04-03T10:27:01;7.60;;;2.30;;
68744;SDS011;66104;45.456;11.064;2023-04-03T10:29:49;4.50;;;2.10;;
68744;SDS011;66104;45.456;11.064;2023-04-03T10:32:45;5.20;;;2.30;;
68744;SDS011;66104;45.456;11.064;2023-04-03T10:35:41;4.50;;;2.30;;
68744;SDS011;66104;45.456;11.064;2023-04-03T10:38:34;5.60;;;2.70;;
68744;SDS011;66104;45.456;11.064;2023-04-03T10:41:20;4.60;;;2.50;;
68744;SDS011;66104;45.456;11.064;2023-04-03T10:44:12;4.70;;;2.20;;
68744;SDS011;66104;45.456;11.064;2023-04-03T10:46:55;5.30;;;2.10;;
68744;SDS011;66104;45.456;11.064;2023-04-03T10:49:47;6.30;;;2.50;;
68744;SDS011;66104;45.456;11.064;2023-04-03T10:52:37;7.10;;;2.40;;
68744;SDS011;66104;45.456;11.064;2023-04-03T10:55:28;6.30;;;2.40;;
68744;SDS011;66104;45.456;11.064;2023-04-03T11:00:56;5.90;;;2.60;;
68744;SDS011;66104;45.456;11.064;2023-04-03T11:03:43;11.80;;;2.80;;
68744;SDS011;66104;45.456;11.064;2023-04-03T11:06:24;12.10;;;3.40;;
68744;SDS011;66104;45.456;11.064;2023-04-03T11:09:07;6.90;;;2.20;;
68744;SDS011;66104;45.456;11.064;2023-04-03T11:11:55;10.40;;;2.70;;
68744;SDS011;66104;45.456;11.064;2023-04-03T11:14:38;8.30;;;2.40;;
68744;SDS011;66104;45.456;11.064;2023-04-03T11:17:23;8.70;;;2.70;;
68744;SDS011;66104;45.456;11.064;2023-04-03T11:20:08;5.00;;;2.60;;
68744;SDS011;66104;45.456;11.064;2023-04-03T11:22:54;6.10;;;2.50;;
68744;SDS011;66104;45.456;11.064;2023-04-03T11:25:39;6.30;;;2.00;;
68744;SDS011;66104;45.456;11.064;2023-04-03T11:28:17;5.40;;;2.40;;
68744;SDS011;66104;45.456;11.064;2023-04-03T11:31:02;4.50;;;2.50;;
68744;SDS011;66104;45.456;11.064;2023-04-03T11:33:54;5.40;;;1.80;;
68744;SDS011;66104;45.456;11.064;2023-04-03T11:36:42;5.20;;;2.00;;
68744;SDS011;66104;45.456;11.064;2023-04-03T11:39:25;4.10;;;2.00;;
68744;SDS011;66104;45.456;11.064;2023-04-03T11:42:23;8.00;;;2.40;;
68744;SDS011;66104;45.456;11.064;2023-04-03T11:45:27;5.20;;;2.30;;
68744;SDS011;66104;45.456;11.064;2023-04-03T11:48:41;9.00;;;2.20;;
68744;SDS011;66104;45.456;11.064;2023-04-03T11:51:44;5.80;;;2.70;;
68744;SDS011;66104;45.456;11.064;2023-04-03T11:54:48;4.20;;;2.00;;
68744;SDS011;66104;45.456;11.064;2023-04-03T11:57:50;3.50;;;1.90;;
68744;SDS011;66104;45.456;11.064;2023-04-03T12:01:11;7.30;;;1.90;;
68744;SDS011;66104;45.456;11.064;2023-04-03T12:04:21;7.50;;;2.60;;
68744;SDS011;66104;45.456;11.064;2023-04-03T12:07:16;8.40;;;2.50;;
68744;SDS011;66104;45.456;11.064;2023-04-03T12:09:59;7.10;;;2.20;;
68744;SDS011;66104;45.456;11.064;2023-04-03T12:12:39;7.10;;;2.50;;
68744;SDS011;66104;45.456;11.064;2023-04-03T12:15:26;6.20;;;2.70;;
68744;SDS011;66104;45.456;11.064;2023-04-03T12:19:00;7.40;;;2.40;;
68744;SDS011;66104;45.456;11.064;2023-04-03T12:22:09;6.80;;;2.20;;
68744;SDS011;66104;45.456;11.064;2023-04-03T12:24:51;8.80;;;2.40;;
68744;SDS011;66104;45.456;11.064;2023-04-03T12:30:23;6.70;;;2.10;;
68744;SDS011;66104;45.456;11.064;2023-04-03T12:33:23;4.80;;;2.20;;
68744;SDS011;66104;45.456;11.064;2023-04-03T12:36:12;16.00;;;2.90;;
68744;SDS011;66104;45.456;11.064;2023-04-03T12:39:14;8.80;;;2.30;;
68744;SDS011;66104;45.456;11.064;2023-04-03T12:42:08;8.90;;;2.50;;
68744;SDS011;66104;45.456;11.064;2023-04-03T12:45:02;6.20;;;2.50;;
68744;SDS011;66104;45.456;11.064;2023-04-03T12:47:51;4.60;;;2.60;;
68744;SDS011;66104;45.456;11.064;2023-04-03T12:50:30;6.00;;;2.80;;
68744;SDS011;66104;45.456;11.064;2023-04-03T12:53:11;7.10;;;2.70;;
68744;SDS011;66104;45.456;11.064;2023-04-03T12:55:56;8.60;;;2.90;;
68744;SDS011;66104;45.456;11.064;2023-04-03T12:58:52;12.10;;;3.20;;
68744;SDS011;66104;45.456;11.064;2023-04-03T13:01:29;7.70;;;2.50;;
68744;SDS011;66104;45.456;11.064;2023-04-03T13:04:06;8.80;;;2.60;;
68744;SDS011;66104;45.456;11.064;2023-04-03T13:06:45;5.80;;;2.20;;
68744;SDS011;66104;45.456;11.064;2023-04-03T13:09:24;6.40;;;2.40;;
68744;SDS011;66104;45.456;11.064;2023-04-03T13:12:03;5.80;;;2.40;;
68744;SDS011;66104;45.456;11.064;2023-04-03T13:14:56;6.70;;;2.20;;
68744;SDS011;66104;45.456;11.064;2023-04-03T13:17:40;6.70;;;2.40;;
68744;SDS011;66104;45.456;11.064;2023-04-03T13:20:21;7.20;;;2.60;;
68744;SDS011;66104;45.456;11.064;2023-04-03T13:23:02;8.00;;;2.40;;
68744;SDS011;66104;45.456;11.064;2023-04-03T13:25:42;4.70;;;2.10;;
68744;SDS011;66104;45.456;11.064;2023-04-03T13:28:23;5.10;;;2.40;;
68744;SDS011;66104;45.456;11.064;2023-04-03T13:31:05;8.70;;;2.70;;
68744;SDS011;66104;45.456;11.064;2023-04-03T13:33:58;6.20;;;2.40;;
68744;SDS011;66104;45.456;11.064;2023-04-03T13:36:41;7.90;;;2.10;;
68744;SDS011;66104;45.456;11.064;2023-04-03T13:39:29;6.00;;;2.40;;
68744;SDS011;66104;45.456;11.064;2023-04-03T13:42:20;7.10;;;2.70;;
68744;SDS011;66104;45.456;11.064;2023-04-03T13:48:19;5.60;;;2.70;;
68744;SDS011;66104;45.456;11.064;2023-04-03T13:50:59;7.70;;;2.50;;
68744;SDS011;66104;45.456;11.064;2023-04-03T13:53:44;6.30;;;2.00;;
68744;SDS011;66104;45.456;11.064;2023-04-03T13:56:26;6.60;;;2.20;;
68744;SDS011;66104;45.456;11.064;2023-04-03T13:59:20;6.60;;;2.50;;
68744;SDS011;66104;45.456;11.064;2023-04-03T14:02:16;8.20;;;2.40;;
68744;SDS011;66104;45.456;11.064;2023-04-03T14:04:57;6.60;;;2.40;;
68744;SDS011;66104;45.456;11.064;2023-04-03T14:07:35;9.80;;;3.00;;
68744;SDS011;66104;45.456;11.064;2023-04-03T14:10:16;7.40;;;2.40;;
68744;SDS011;66104;45.456;11.064;2023-04-03T14:12:53;8.60;;;2.50;;
68744;SDS011;66104;45.456;11.064;2023-04-03T14:15:32;6.50;;;2.40;;
68744;SDS011;66104;45.456;11.064;2023-04-03T14:18:10;9.90;;;2.80;;
68744;SDS011;66104;45.456;11.064;2023-04-03T14:20:48;5.70;;;2.00;;
68744;SDS011;66104;45.456;11.064;2023-04-03T14:23:25;9.20;;;2.60;;
68744;SDS011;66104;45.456;11.064;2023-04-03T14:26:02;7.60;;;2.80;;
68744;SDS011;66104;45.456;11.064;2023-04-03T14:28:38;5.30;;;2.70;;
68744;SDS011;66104;45.456;11.064;2023-04-03T14:31:16;8.00;;;2.60;;
68744;SDS011;66104;45.456;11.064;2023-04-03T14:33:53;11.50;;;2.70;;
68744;SDS011;66104;45.456;11.064;2023-04-03T14:36:29;6.90;;;2.80;;
68744;SDS011;66104;45.456;11.064;2023-04-03T14:39:07;8.30;;;2.90;;
68744;SDS011;66104;45.456;11.064;2023-04-03T14:41:50;10.10;;;2.40;;
68744;SDS011;66104;45.456;11.064;2023-04-03T14:44:26;8.30;;;2.50;;
68744;SDS011;66104;45.456;11.064;2023-04-03T14:47:03;7.80;;;2.70;;
68744;SDS011;66104;45.456;11.064;2023-04-03T14:50:02;6.60;;;2.40;;
68744;SDS011;66104;45.456;11.064;2023-04-03T14:52:40;11.10;;;2.30;;
68744;SDS011;66104;45.456;11.064;2023-04-03T14:55:20;6.60;;;2.40;;
68744;SDS011;66104;45.456;11.064;2023-04-03T14:57:56;5.50;;;2.40;;
68744;SDS011;66104;45.456;11.064;2023-04-03T15:00:34;6.80;;;2.60;;
68744;SDS011;66104;45.456;11.064;2023-04-03T15:03:15;5.70;;;2.50;;
68744;SDS011;66104;45.456;11.064;2023-04-03T15:05:53;9.20;;;2.60;;
68744;SDS011;66104;45.456;11.064;2023-04-03T15:08:30;8.00;;;3.10;;
68744;SDS011;66104;45.456;11.064;2023-04-03T15:11:07;8.80;;;2.80;;
68744;SDS011;66104;45.456;11.064;2023-04-03T15:13:45;7.80;;;2.60;;
68744;SDS011;66104;45.456;11.064;2023-04-03T15:16:22;7.10;;;3.00;;
68744;SDS011;66104;45.456;11.064;2023-04-03T15:18:58;9.70;;;2.70;;
68744;SDS011;66104;45.456;11.064;2023-04-03T15:21:35;6.80;;;2.20;;
68744;SDS011;66104;45.456;11.064;2023-04-03T15:24:12;6.70;;;2.60;;
68744;SDS011;66104;45.456;11.064;2023-04-03T15:26:48;10.50;;;2.30;;
68744;SDS011;66104;45.456;11.064;2023-04-03T23:16:39;6.30;;;2.00;;
68744;SDS011;66104;45.456;11.064;2023-04-03T23:19:17;5.00;;;2.40;;
68744;SDS011;66104;45.456;11.064;2023-04-03T23:21:53;4.50;;;2.10;;
68744;SDS011;66104;45.456;11.064;2023-04-03T23:24:29;5.40;;;2.00;;
68744;SDS011;66104;45.456;11.064;2023-04-03T23:27:05;4.40;;;2.40;;
68744;SDS011;66104;45.456;11.064;2023-04-03T23:29:41;5.50;;;2.20;;
68744;SDS011;66104;45.456;11.064;2023-04-03T23:32:18;5.30;;;2.20;;
68744;SDS011;66104;45.456;11.064;2023-04-03T23:34:54;6.00;;;2.20;;
68744;SDS011;66104;45.456;11.064;2023-04-03T23:37:32;4.30;;;2.20;;
68744;SDS011;66104;45.456;11.064;2023-04-03T23:40:13;4.70;;;2.10;;
68744;SDS011;66104;45.456;11.064;2023-04-03T23:42:51;4.50;;;2.30;;
68744;SDS011;66104;45.456;11.064;2023-04-03T23:45:27;5.10;;;2.50;;
68744;SDS011;66104;45.456;11.064;2023-04-03T23:48:04;4.80;;;2.40;;
68744;SDS011;66104;45.456;11.064;2023-04-03T23:50:41;3.50;;;2.20;;
68744;SDS011;66104;45.456;11.064;2023-04-03T23:53:18;5.90;;;2.50;;